Terminal Aerodrome Forecast
Issued by NWS

Current Version | Previous Version | Text Only | Print | Product List | Glossary Off
Versions: 1 2 3 4 5 6 7 8 9 10 11 12 13 14 15 16 17

000
FTUS41 KILN 262300
TAFLCK
TAF
KLCK 262340Z 2700/2724 22003KT P6SM SCT050 BKN250
     FM271000 31004KT P6SM SCT040 BKN100
     FM272300 34005KT P6SM SCT050 SCT100=

USA.gov is the U.S. government's official web portal to all federal, state and local government web resources and services.